Time;durP1;ratioP1;P1;durP2;ratioP2;P2;SDS_P1;SDS_P2;PMS_P1;PMS_P2;Temp;Humidity;BMP_temperature;BMP_pressure;BME280_temperature;BME280_humidity;BME280_pressure;Samples;Min_cycle;Max_cycle;Signal;HPM_P1;HPM_P2
2021/06/30 04:00:13;;;;;;;1.33;0.70;;;15.20;99.90;;;;;;6055975;23;20386;31
2021/06/30 04:02:40;;;;;;;1.00;0.63;;;15.30;99.90;;;;;;4937682;29;20795;-61
2021/06/30 04:05:07;;;;;;;1.50;0.50;;;15.30;99.90;;;;;;4936746;29;20479;-62
2021/06/30 04:07:35;;;;;;;0.67;0.67;;;15.20;99.90;;;;;;4937220;29;20456;-59
2021/06/30 04:10:02;;;;;;;1.33;0.80;;;15.20;99.90;;;;;;4937179;29;20479;-62
2021/06/30 04:12:28;;;;;;;0.50;0.50;;;15.30;99.90;;;;;;4956147;29;20975;-63
2021/06/30 04:14:55;;;;;;;0.90;0.90;;;15.30;99.90;;;;;;4956976;29;20467;-62
2021/06/30 04:17:23;;;;;;;0.77;0.77;;;15.30;99.90;;;;;;4956448;29;20820;-63
2021/06/30 04:19:50;;;;;;;0.53;0.53;;;15.30;99.90;;;;;;4957709;29;20459;-62
2021/06/30 04:22:17;;;;;;;0.60;0.60;;;15.30;99.90;;;;;;4957207;29;20479;-62
2021/06/30 04:24:43;;;;;;;3.30;0.83;;;15.30;99.90;;;;;;4956312;29;20460;-62
2021/06/30 04:27:10;;;;;;;0.60;0.60;;;15.40;99.90;;;;;;4956615;29;20451;-62
2021/06/30 04:29:37;;;;;;;1.03;0.50;;;15.40;99.90;;;;;;4956055;29;20458;-61
2021/06/30 04:32:04;;;;;;;0.53;0.53;;;15.40;99.90;;;;;;4956137;29;20502;-62
2021/06/30 04:34:32;;;;;;;0.60;0.60;;;15.50;99.90;;;;;;4956040;28;20483;-62
2021/06/30 04:36:59;;;;;;;1.30;0.80;;;15.50;99.90;;;;;;4956143;29;20455;-61
2021/06/30 04:39:27;;;;;;;1.07;0.70;;;15.60;99.90;;;;;;4955929;29;20456;-61
2021/06/30 04:41:54;;;;;;;0.60;0.60;;;15.60;99.90;;;;;;4955765;29;20480;-62
2021/06/30 04:44:21;;;;;;;0.80;0.80;;;15.70;99.90;;;;;;4955979;29;20456;-62
2021/06/30 04:46:47;;;;;;;1.13;0.77;;;15.80;99.90;;;;;;4956490;29;20907;-61
2021/06/30 04:49:14;;;;;;;2.20;0.77;;;15.80;99.90;;;;;;4956521;29;20947;-62
2021/06/30 04:51:44;;;;;;;0.67;0.63;;;15.80;99.90;;;;;;4956300;29;20479;-62
2021/06/30 04:54:11;;;;;;;0.60;0.60;;;15.80;99.90;;;;;;4956429;29;20468;-61
2021/06/30 04:56:40;;;;;;;0.87;0.70;;;15.80;99.90;;;;;;4956715;29;20455;-62
2021/06/30 04:59:08;;;;;;;1.03;0.90;;;15.90;99.90;;;;;;4956070;29;21022;-62
2021/06/30 05:01:35;;;;;;;1.40;0.60;;;15.80;99.90;;;;;;4955375;29;20483;-62
2021/06/30 05:04:02;;;;;;;3.17;0.70;;;15.80;99.90;;;;;;4955767;28;20848;-62
2021/06/30 05:06:29;;;;;;;1.50;0.70;;;15.80;99.90;;;;;;4955688;29;20460;-62
2021/06/30 05:08:57;;;;;;;1.27;0.60;;;15.90;99.90;;;;;;4955822;29;20466;-62
2021/06/30 05:11:23;;;;;;;0.97;0.87;;;16.00;99.90;;;;;;4955951;29;20835;-62
2021/06/30 05:13:50;;;;;;;0.67;0.67;;;16.10;99.90;;;;;;4955327;29;20516;-63
2021/06/30 05:16:17;;;;;;;1.33;0.70;;;16.20;99.90;;;;;;4956209;28;20994;-63
2021/06/30 05:18:44;;;;;;;0.67;0.60;;;16.40;99.90;;;;;;4959272;29;20460;-63
2021/06/30 05:21:10;;;;;;;0.87;0.87;;;16.60;99.90;;;;;;4959251;29;20471;-63
2021/06/30 05:23:37;;;;;;;2.33;0.80;;;16.80;99.90;;;;;;4959296;29;20466;-63
2021/06/30 05:26:05;;;;;;;0.70;0.70;;;17.00;99.90;;;;;;4959328;29;20876;-62
2021/06/30 05:28:32;;;;;;;2.40;0.80;;;17.30;99.90;;;;;;4959176;29;20533;-62
2021/06/30 05:31:00;;;;;;;0.63;0.63;;;17.40;99.90;;;;;;4971105;29;20501;-64
2021/06/30 05:33:27;;;;;;;2.03;0.73;;;17.60;99.90;;;;;;4971298;29;20491;-63
2021/06/30 05:35:55;;;;;;;0.60;0.60;;;17.80;99.90;;;;;;4960279;29;20463;-63
2021/06/30 05:38:22;;;;;;;3.20;0.50;;;18.00;99.90;;;;;;4959521;29;20443;-61
2021/06/30 05:40:49;;;;;;;0.60;0.60;;;18.10;99.90;;;;;;4959399;29;20482;-61
2021/06/30 05:43:17;;;;;;;2.73;0.60;;;18.10;99.90;;;;;;4958764;29;20456;-61
2021/06/30 05:45:44;;;;;;;0.60;0.60;;;18.10;99.90;;;;;;4958691;29;20451;-62
2021/06/30 05:48:11;;;;;;;0.50;0.50;;;18.00;99.90;;;;;;4958807;29;20854;-62
2021/06/30 05:50:37;;;;;;;4.83;0.77;;;17.90;99.90;;;;;;4958786;29;20482;-62
2021/06/30 05:53:04;;;;;;;0.73;0.60;;;17.90;99.90;;;;;;4958780;29;20456;-62
2021/06/30 05:55:31;;;;;;;0.30;0.30;;;18.00;99.90;;;;;;4958877;29;20826;-63
2021/06/30 05:57:58;;;;;;;1.47;0.50;;;17.90;99.90;;;;;;4958562;29;20501;-62
2021/06/30 06:00:26;;;;;;;0.57;0.53;;;17.90;99.90;;;;;;4958607;29;20482;-63
2021/06/30 06:02:53;;;;;;;0.83;0.83;;;17.80;99.90;;;;;;4959321;29;20451;-62
2021/06/30 06:05:20;;;;;;;0.50;0.50;;;18.10;99.90;;;;;;4959008;29;20819;-63
2021/06/30 06:07:47;;;;;;;0.57;0.57;;;18.10;99.90;;;;;;4962182;29;20455;-63
2021/06/30 06:10:14;;;;;;;0.60;0.60;;;18.30;99.90;;;;;;4959291;29;20462;-62
2021/06/30 06:12:41;;;;;;;0.73;0.70;;;18.40;99.90;;;;;;4958093;29;20457;-62
2021/06/30 06:15:09;;;;;;;0.60;0.60;;;18.30;99.90;;;;;;4958844;29;20483;-62
2021/06/30 06:17:38;;;;;;;2.93;0.50;;;18.20;99.90;;;;;;4958385;29;20456;-61
2021/06/30 06:20:06;;;;;;;0.77;0.70;;;18.20;99.90;;;;;;4958271;29;20464;-62
2021/06/30 06:22:33;;;;;;;0.50;0.50;;;18.30;99.90;;;;;;4958147;29;20480;-61
2021/06/30 06:25:00;;;;;;;0.60;0.60;;;18.50;99.90;;;;;;4958326;29;20459;-61
2021/06/30 06:27:27;;;;;;;1.13;0.50;;;18.70;99.90;;;;;;4958510;28;20467;-61
2021/06/30 06:29:53;;;;;;;1.47;0.60;;;18.60;99.90;;;;;;4957879;29;20518;-61
2021/06/30 06:32:20;;;;;;;0.93;0.93;;;18.60;99.90;;;;;;4957980;29;20482;-61
2021/06/30 06:34:48;;;;;;;1.73;0.60;;;18.70;99.90;;;;;;4957840;29;20990;-62
2021/06/30 06:37:16;;;;;;;0.70;0.70;;;18.80;99.90;;;;;;4958031;29;20455;-62
2021/06/30 06:39:44;;;;;;;0.60;0.60;;;18.80;99.90;;;;;;4958087;29;20484;-63
2021/06/30 06:42:12;;;;;;;0.60;0.60;;;18.80;99.90;;;;;;4957797;29;20487;-62
2021/06/30 06:44:40;;;;;;;0.70;0.50;;;18.80;99.90;;;;;;4957517;29;20856;-62
2021/06/30 06:47:06;;;;;;;1.73;0.60;;;18.70;99.90;;;;;;4957432;29;20816;-62
2021/06/30 06:49:33;;;;;;;1.00;1.00;;;18.70;99.90;;;;;;4957451;29;20467;-62
2021/06/30 06:52:01;;;;;;;1.23;1.07;;;18.80;99.90;;;;;;4957568;29;20479;-62
2021/06/30 06:54:28;;;;;;;0.93;0.50;;;19.00;99.90;;;;;;4957553;28;20507;-63
2021/06/30 06:56:55;;;;;;;0.93;0.87;;;19.40;99.90;;;;;;4957454;29;20479;-63
2021/06/30 06:59:22;;;;;;;1.80;0.50;;;19.70;99.90;;;;;;4957263;29;20466;-63
2021/06/30 07:01:49;;;;;;;0.77;0.50;;;20.00;99.90;;;;;;4957082;29;20836;-62
2021/06/30 07:04:16;;;;;;;0.60;0.60;;;20.20;99.90;;;;;;4962580;29;20455;-63
2021/06/30 07:06:42;;;;;;;1.13;0.50;;;20.60;99.90;;;;;;4968095;29;20448;-63
2021/06/30 07:09:10;;;;;;;0.60;0.60;;;20.80;99.90;;;;;;4958790;29;20820;-63
2021/06/30 07:11:37;;;;;;;1.23;0.50;;;21.00;99.90;;;;;;4956979;29;20836;-63
2021/06/30 07:14:04;;;;;;;0.60;0.60;;;20.90;99.90;;;;;;4957160;29;20816;-63
2021/06/30 07:16:31;;;;;;;0.80;0.60;;;20.90;99.90;;;;;;4956801;29;20479;-62
2021/06/30 07:18:57;;;;;;;0.93;0.60;;;20.70;99.90;;;;;;4956998;29;20464;-63
2021/06/30 07:21:24;;;;;;;0.70;0.70;;;20.60;99.90;;;;;;4957067;28;20483;-62
2021/06/30 07:23:51;;;;;;;0.53;0.53;;;20.50;99.90;;;;;;4957271;29;20467;-63
2021/06/30 07:26:19;;;;;;;1.57;0.70;;;20.20;99.90;;;;;;4957026;29;20940;-63
2021/06/30 07:28:45;;;;;;;3.63;0.80;;;20.10;99.90;;;;;;4956925;29;20460;-63
2021/06/30 07:31:12;;;;;;;0.97;0.60;;;19.80;99.90;;;;;;4956692;29;20556;-63
2021/06/30 07:33:40;;;;;;;1.17;0.50;;;19.60;99.90;;;;;;4956823;29;20467;-62
2021/06/30 07:36:08;;;;;;;0.60;0.50;;;19.50;99.90;;;;;;4956529;29;20518;-62
2021/06/30 07:38:35;;;;;;;1.20;0.60;;;19.50;99.90;;;;;;4956723;28;20484;-62
2021/06/30 07:41:01;;;;;;;1.23;0.77;;;19.60;99.90;;;;;;4955277;28;20475;-62
2021/06/30 07:43:29;;;;;;;0.60;0.50;;;19.90;99.90;;;;;;4956654;29;20460;-62
2021/06/30 07:45:56;;;;;;;0.60;0.53;;;20.50;99.90;;;;;;4956089;29;20939;-62
2021/06/30 07:48:23;;;;;;;0.43;0.43;;;21.40;99.90;;;;;;4956565;29;20444;-62
2021/06/30 07:50:50;;;;;;;0.67;0.60;;;22.20;99.90;;;;;;4956092;29;20841;-62
2021/06/30 07:53:17;;;;;;;0.60;0.60;;;23.10;99.90;;;;;;4956667;29;20488;-62
2021/06/30 07:55:46;;;;;;;3.17;0.57;;;23.50;99.90;;;;;;4956160;29;20494;-63
2021/06/30 07:58:12;;;;;;;0.60;0.60;;;23.50;99.90;;;;;;4956285;29;20463;-63
2021/06/30 08:00:40;;;;;;;0.60;0.50;;;23.80;99.90;;;;;;4956145;29;20990;-63
2021/06/30 08:03:07;;;;;;;0.50;0.40;;;24.30;99.90;;;;;;4956136;29;20444;-63
2021/06/30 08:05:34;;;;;;;0.63;0.63;;;24.50;99.90;;;;;;4956469;29;20463;-63
2021/06/30 08:08:00;;;;;;;0.60;0.60;;;24.40;99.90;;;;;;4956108;28;20459;-63
2021/06/30 08:10:27;;;;;;;1.53;0.60;;;24.50;99.90;;;;;;4956400;29;20466;-63
2021/06/30 08:12:54;;;;;;;2.47;0.83;;;25.10;99.90;;;;;;4956028;29;20462;-63
2021/06/30 08:15:21;;;;;;;0.47;0.47;;;25.80;99.90;;;;;;4955623;29;20487;-63
2021/06/30 08:17:49;;;;;;;0.50;0.50;;;26.20;99.90;;;;;;4955971;29;20819;-63
2021/06/30 08:20:16;;;;;;;1.00;0.70;;;26.30;99.10;;;;;;4955954;29;20459;-63
2021/06/30 08:22:43;;;;;;;0.63;0.60;;;25.80;99.90;;;;;;4955907;29;20547;-63
2021/06/30 08:25:11;;;;;;;0.97;0.63;;;25.50;99.90;;;;;;4956077;29;20463;-63
2021/06/30 08:27:39;;;;;;;0.70;0.60;;;25.00;99.90;;;;;;4956103;29;20460;-63
2021/06/30 08:30:07;;;;;;;1.37;0.77;;;24.60;99.90;;;;;;4955646;29;20463;-63
2021/06/30 08:32:34;;;;;;;0.50;0.50;;;24.20;99.90;;;;;;4955933;29;20482;-63
2021/06/30 08:35:02;;;;;;;0.90;0.80;;;23.90;99.90;;;;;;4955637;29;20486;-63
2021/06/30 08:37:32;;;;;;;1.27;0.60;;;23.50;99.90;;;;;;4955294;29;20826;-63
2021/06/30 08:39:59;;;;;;;2.23;1.00;;;23.50;99.90;;;;;;4960577;28;20447;-63
2021/06/30 08:42:25;;;;;;;0.50;0.50;;;23.30;99.90;;;;;;4956896;29;20870;-63
2021/06/30 08:44:52;;;;;;;0.73;0.43;;;23.00;99.90;;;;;;4955803;29;20482;-63
2021/06/30 08:47:24;;;;;;;1.60;0.80;;;22.50;99.90;;;;;;4955909;29;20455;-62
2021/06/30 08:49:51;;;;;;;0.63;0.63;;;21.80;99.90;;;;;;4956241;29;20451;-62
2021/06/30 08:52:20;;;;;;;2.63;0.70;;;21.10;99.90;;;;;;4960055;28;20840;-63
2021/06/30 08:54:47;;;;;;;1.30;0.60;;;20.80;99.90;;;;;;4961247;29;20821;-62
2021/06/30 08:57:18;;;;;;;0.50;0.50;;;20.20;99.90;;;;;;4960411;29;20847;-61
2021/06/30 08:59:45;;;;;;;1.37;0.70;;;19.80;99.90;;;;;;4959335;29;20925;-61
2021/06/30 09:02:12;;;;;;;2.13;0.60;;;19.50;99.90;;;;;;4958977;29;21010;-62
2021/06/30 09:04:41;;;;;;;1.20;0.40;;;19.20;99.90;;;;;;4959196;29;20822;-63
2021/06/30 09:07:08;;;;;;;0.60;0.60;;;19.20;99.90;;;;;;4959400;29;20452;-63
2021/06/30 09:09:40;;;;;;;1.80;0.60;;;19.20;99.90;;;;;;4959291;29;20452;-62
2021/06/30 09:12:08;;;;;;;2.10;0.77;;;19.30;99.90;;;;;;4959207;28;20507;-62
2021/06/30 09:14:37;;;;;;;0.60;0.60;;;19.50;99.90;;;;;;4959305;28;20830;-62
2021/06/30 09:17:21;;;;;;;0.57;0.57;;;19.60;99.90;;;;;;4959045;29;20475;-62
2021/06/30 09:19:51;;;;;;;0.60;0.60;;;19.70;99.90;;;;;;4959758;29;20471;-63
2021/06/30 09:22:19;;;;;;;0.70;0.70;;;19.80;99.90;;;;;;4959116;29;20479;-62
2021/06/30 09:24:48;;;;;;;0.70;0.70;;;19.90;99.90;;;;;;4958967;29;20451;-63
2021/06/30 09:27:17;;;;;;;0.70;0.70;;;19.90;99.90;;;;;;4958521;29;20570;-62
2021/06/30 09:29:44;;;;;;;0.77;0.77;;;19.90;99.90;;;;;;4958989;29;20463;-62
2021/06/30 09:32:12;;;;;;;1.23;0.80;;;19.90;99.90;;;;;;4958900;29;20475;-62
2021/06/30 09:34:39;;;;;;;1.77;0.90;;;19.90;99.90;;;;;;4959013;29;20463;-63
2021/06/30 09:37:08;;;;;;;1.23;0.90;;;20.00;99.90;;;;;;4958675;29;20846;-63
2021/06/30 09:39:37;;;;;;;0.80;0.80;;;20.10;99.90;;;;;;4958857;28;20549;-63
2021/06/30 09:42:10;;;;;;;1.90;0.70;;;20.60;99.90;;;;;;4958733;28;20479;-63
2021/06/30 09:44:38;;;;;;;0.60;0.60;;;21.30;99.90;;;;;;4958456;29;20923;-62
2021/06/30 09:47:06;;;;;;;0.93;0.93;;;21.70;99.90;;;;;;4958492;29;20455;-63
2021/06/30 09:49:36;;;;;;;1.37;0.53;;;22.20;99.90;;;;;;4958636;29;20459;-62
2021/06/30 09:52:09;;;;;;;0.70;0.70;;;22.70;99.90;;;;;;4958413;29;20477;-62
2021/06/30 09:54:38;;;;;;;0.43;0.43;;;23.10;99.90;;;;;;4959462;29;20444;-62
2021/06/30 09:57:07;;;;;;;1.43;0.70;;;23.60;99.90;;;;;;4959531;29;20490;-63
2021/06/30 09:59:39;;;;;;;0.50;0.50;;;23.80;99.90;;;;;;4958601;29;20462;-64
2021/06/30 10:02:09;;;;;;;0.70;0.70;;;23.80;99.90;;;;;;4958420;28;20986;-64
2021/06/30 10:04:37;;;;;;;0.50;0.50;;;23.50;99.90;;;;;;4959061;29;20451;-64
2021/06/30 10:07:10;;;;;;;0.53;0.50;;;23.20;99.90;;;;;;4958237;29;20452;-63
2021/06/30 10:09:38;;;;;;;0.60;0.60;;;23.20;99.90;;;;;;4958062;29;20444;-63
2021/06/30 10:12:09;;;;;;;0.60;0.60;;;23.20;99.90;;;;;;4958764;29;20476;-63
2021/06/30 10:14:36;;;;;;;0.73;0.73;;;23.20;99.90;;;;;;4959706;29;20443;-62
2021/06/30 10:17:04;;;;;;;0.60;0.60;;;23.10;99.90;;;;;;4958445;29;20494;-64
2021/06/30 10:19:31;;;;;;;0.50;0.50;;;23.00;99.90;;;;;;4958080;29;20463;-64
2021/06/30 10:21:58;;;;;;;0.50;0.50;;;22.60;99.90;;;;;;4958159;29;20475;-63
2021/06/30 10:24:25;;;;;;;0.70;0.70;;;23.20;99.90;;;;;;4957698;29;20939;-63
2021/06/30 10:26:53;;;;;;;0.43;0.43;;;23.70;99.90;;;;;;4957916;29;20451;-63
2021/06/30 10:29:24;;;;;;;0.47;0.47;;;24.30;99.90;;;;;;4957908;29;20455;-64
2021/06/30 10:31:52;;;;;;;0.40;0.40;;;24.70;99.90;;;;;;4958049;28;20476;-63
2021/06/30 10:34:21;;;;;;;0.73;0.67;;;24.70;99.90;;;;;;4957822;29;20452;-62
2021/06/30 10:36:51;;;;;;;1.63;0.53;;;24.90;99.90;;;;;;4957802;29;20530;-62
2021/06/30 10:39:20;;;;;;;0.50;0.50;;;24.80;99.90;;;;;;4957482;29;20459;-62
2021/06/30 10:41:54;;;;;;;0.60;0.60;;;24.80;99.90;;;;;;4957263;29;20997;-63
2021/06/30 10:44:23;;;;;;;0.50;0.50;;;24.90;99.90;;;;;;4957524;29;20443;-63
2021/06/30 10:46:52;;;;;;;0.60;0.50;;;25.20;99.90;;;;;;4957792;29;20460;-63
2021/06/30 10:49:27;;;;;;;0.60;0.60;;;25.20;99.90;;;;;;4957722;29;20550;-62
2021/06/30 10:51:56;;;;;;;1.17;0.57;;;24.90;99.90;;;;;;4957298;29;20479;-63
2021/06/30 10:54:42;;;;;;;0.80;0.80;;;24.70;99.90;;;;;;4957234;29;20885;-63
2021/06/30 10:57:27;;;;;;;0.90;0.60;;;24.10;99.90;;;;;;4958089;29;20828;-62
2021/06/30 11:00:14;;;;;;;0.93;0.80;;;23.20;99.90;;;;;;4956228;29;20854;-63
2021/06/30 11:02:41;;;;;;;6.07;1.30;;;22.60;99.90;;;;;;4957395;29;20439;-63
2021/06/30 11:05:33;;;;;;;2.00;0.90;;;22.20;99.90;;;;;;4956941;29;20456;-63
2021/06/30 11:08:00;;;;;;;0.80;0.80;;;21.80;99.90;;;;;;4957127;29;20436;-63
2021/06/30 11:10:49;;;;;;;0.73;0.73;;;21.70;99.90;;;;;;4957122;29;20455;-63
2021/06/30 11:13:16;;;;;;;0.80;0.80;;;21.70;99.90;;;;;;4956974;29;20440;-63
2021/06/30 11:15:44;;;;;;;0.83;0.57;;;21.80;99.90;;;;;;4957068;28;20475;-63
2021/06/30 11:18:44;;;;;;;0.70;0.70;;;21.80;99.90;;;;;;4957018;29;20479;-63
2021/06/30 11:21:15;;;;;;;0.70;0.70;;;21.70;99.90;;;;;;4953968;29;20492;-63
2021/06/30 11:23:43;;;;;;;0.70;0.70;;;21.70;99.90;;;;;;4957457;29;20466;-63
2021/06/30 11:26:34;;;;;;;0.60;0.60;;;21.80;99.90;;;;;;4957308;29;20482;-63
2021/06/30 11:29:01;;;;;;;0.60;0.60;;;22.00;99.90;;;;;;4965641;29;20447;-63
2021/06/30 11:31:41;;;;;;;0.60;0.60;;;22.50;99.90;;;;;;4965274;29;20475;-63
2021/06/30 11:34:20;;;;;;;4.13;0.57;;;23.10;99.90;;;;;;4966823;28;20514;-63
2021/06/30 11:36:46;;;;;;;0.93;0.50;;;23.80;99.90;;;;;;4966281;29;20463;-63
2021/06/30 11:39:16;;;;;;;1.27;0.80;;;24.30;99.90;;;;;;4959387;29;20444;-63
2021/06/30 11:41:43;;;;;;;1.43;0.60;;;24.60;99.90;;;;;;4956674;29;20939;-64
2021/06/30 11:44:10;;;;;;;0.90;0.70;;;24.50;99.90;;;;;;4957016;29;20459;-64
2021/06/30 11:46:38;;;;;;;0.87;0.87;;;24.40;99.90;;;;;;4963748;28;20452;-63
2021/06/30 11:49:07;;;;;;;1.40;0.87;;;24.10;99.90;;;;;;4958524;29;20543;-62
2021/06/30 11:51:34;;;;;;;0.77;0.70;;;23.70;99.90;;;;;;4956908;29;20518;-63
2021/06/30 11:54:01;;;;;;;0.87;0.87;;;23.30;99.90;;;;;;4972253;29;20463;-63
2021/06/30 11:56:39;;;;;;;1.20;0.60;;;23.20;99.90;;;;;;4977137;29;20507;-63
2021/06/30 11:59:07;;;;;;;0.60;0.60;;;23.00;99.90;;;;;;4960980;28;20467;-63
2021/06/30 12:01:35;;;;;;;0.60;0.60;;;22.90;99.90;;;;;;4960245;29;20483;-63
2021/06/30 12:04:20;;;;;;;0.60;0.60;;;23.10;99.90;;;;;;4956498;29;20465;-63
2021/06/30 12:06:48;;;;;;;0.60;0.60;;;22.90;99.90;;;;;;4956197;29;20440;-63
2021/06/30 12:09:18;;;;;;;0.90;0.80;;;22.70;99.90;;;;;;4956537;29;20456;-63
2021/06/30 12:11:48;;;;;;;0.60;0.60;;;22.50;99.90;;;;;;4956610;29;20479;-63
2021/06/30 12:14:16;;;;;;;0.80;0.70;;;22.30;99.90;;;;;;4956294;29;20456;-63
2021/06/30 12:16:45;;;;;;;0.87;0.87;;;21.80;99.90;;;;;;4956355;29;20479;-62
2021/06/30 12:19:14;;;;;;;0.70;0.70;;;21.70;99.90;;;;;;4956936;29;20456;-63
2021/06/30 12:21:43;;;;;;;0.63;0.63;;;21.70;99.90;;;;;;4956393;29;20479;-64
2021/06/30 12:24:18;;;;;;;0.73;0.70;;;21.90;99.90;;;;;;4955933;29;20439;-63
2021/06/30 12:27:10;;;;;;;0.70;0.70;;;22.40;99.90;;;;;;4955486;28;20462;-63
2021/06/30 12:29:39;;;;;;;1.00;0.60;;;22.90;99.90;;;;;;4938045;29;20459;-63
2021/06/30 12:32:09;;;;;;;0.90;0.90;;;23.30;99.90;;;;;;4955391;29;20472;-63
2021/06/30 12:34:36;;;;;;;0.70;0.70;;;23.50;99.90;;;;;;4956023;29;20451;-63
2021/06/30 12:37:05;;;;;;;0.73;0.73;;;23.50;99.90;;;;;;4956048;29;20483;-63
2021/06/30 12:39:34;;;;;;;0.70;0.60;;;23.60;99.90;;;;;;4955671;28;20532;-63
2021/06/30 12:42:03;;;;;;;1.30;0.60;;;23.50;99.90;;;;;;4955782;29;20490;-63
2021/06/30 12:44:32;;;;;;;0.97;0.87;;;23.40;99.90;;;;;;4955755;29;20831;-63
2021/06/30 12:47:10;;;;;;;2.73;0.80;;;23.00;99.90;;;;;;4955546;29;20935;-61
2021/06/30 12:49:37;;;;;;;0.70;0.70;;;22.80;99.90;;;;;;4955539;28;20954;-63
2021/06/30 12:52:06;;;;;;;0.60;0.60;;;22.40;99.90;;;;;;4955718;29;20486;-63
2021/06/30 12:54:33;;;;;;;0.97;0.97;;;22.10;99.90;;;;;;4955737;29;20466;-63
2021/06/30 12:57:01;;;;;;;0.50;0.50;;;22.20;99.90;;;;;;4955538;28;20518;-63
2021/06/30 12:59:28;;;;;;;2.00;0.80;;;22.30;99.90;;;;;;4955768;28;20495;-63
2021/06/30 13:01:56;;;;;;;0.70;0.70;;;22.50;99.90;;;;;;4955513;29;20995;-63
2021/06/30 13:04:30;;;;;;;0.77;0.70;;;22.70;99.90;;;;;;4955532;29;20466;-63
2021/06/30 13:06:58;;;;;;;0.50;0.50;;;22.60;99.90;;;;;;4955133;29;20460;-63
2021/06/30 13:09:28;;;;;;;3.70;0.60;;;22.70;99.90;;;;;;4955613;28;20515;-63
2021/06/30 13:11:57;;;;;;;0.70;0.70;;;22.10;99.90;;;;;;4955422;29;20486;-62
2021/06/30 13:14:33;;;;;;;0.70;0.70;;;22.00;99.90;;;;;;4955338;29;20455;-63
2021/06/30 13:17:02;;;;;;;0.90;0.70;;;22.00;99.90;;;;;;4955526;29;20467;-64
2021/06/30 13:19:31;;;;;;;1.70;0.60;;;22.10;99.90;;;;;;4961550;29;20444;-63
2021/06/30 13:21:59;;;;;;;0.80;0.80;;;22.20;99.90;;;;;;4957390;29;20966;-63
2021/06/30 13:24:34;;;;;;;0.60;0.53;;;22.30;99.90;;;;;;4956119;29;20455;-63
2021/06/30 13:35:28;;;;;;;1.00;1.00;;;22.00;99.90;;;;;;4955609;29;20799;-63
2021/06/30 13:37:58;;;;;;;4.20;0.80;;;21.90;99.90;;;;;;4957205;28;20483;-63
2021/06/30 13:40:28;;;;;;;0.80;0.80;;;21.80;99.90;;;;;;4958896;29;20452;-63
2021/06/30 13:42:57;;;;;;;1.07;0.97;;;21.70;99.90;;;;;;4958918;29;20451;-62
2021/06/30 13:45:24;;;;;;;2.30;1.00;;;21.60;99.90;;;;;;4959041;28;20461;-63
2021/06/30 13:47:51;;;;;;;1.60;0.70;;;21.60;99.90;;;;;;4959434;29;20459;-63
2021/06/30 13:50:18;;;;;;;0.80;0.80;;;21.40;99.90;;;;;;4958848;29;20459;-63
2021/06/30 13:52:45;;;;;;;1.00;0.83;;;21.40;99.90;;;;;;4959908;28;20550;-63
2021/06/30 13:55:12;;;;;;;0.60;0.60;;;21.40;99.90;;;;;;4958990;29;20771;-63
2021/06/30 13:57:40;;;;;;;0.80;0.80;;;21.30;99.90;;;;;;4958779;29;20514;-63
2021/06/30 14:00:09;;;;;;;0.90;0.90;;;21.10;99.90;;;;;;4959192;29;20455;-63
2021/06/30 14:02:36;;;;;;;1.00;1.00;;;21.10;99.90;;;;;;4958371;29;20483;-63
2021/06/30 14:05:03;;;;;;;2.60;1.17;;;21.10;99.90;;;;;;4958792;29;20488;-63
2021/06/30 14:07:29;;;;;;;1.23;1.07;;;21.10;99.90;;;;;;4958672;29;20528;-64
2021/06/30 14:09:57;;;;;;;1.03;1.03;;;21.20;99.90;;;;;;4958635;29;20463;-63
2021/06/30 14:12:24;;;;;;;1.23;1.10;;;21.30;99.90;;;;;;4958469;29;20487;-63
2021/06/30 14:14:52;;;;;;;1.90;0.90;;;21.40;99.90;;;;;;4958599;29;20850;-63
2021/06/30 14:17:19;;;;;;;0.83;0.83;;;21.60;99.90;;;;;;4958463;29;20476;-63
2021/06/30 14:19:46;;;;;;;1.23;0.90;;;21.80;99.90;;;;;;4958344;29;20943;-63
2021/06/30 14:22:21;;;;;;;0.83;0.80;;;21.80;99.90;;;;;;4958316;29;20475;-63
2021/06/30 14:24:48;;;;;;;0.70;0.70;;;22.20;99.90;;;;;;4958401;29;20454;-63
2021/06/30 14:27:20;;;;;;;0.70;0.70;;;22.30;99.90;;;;;;4958179;29;20642;-63
2021/06/30 14:29:47;;;;;;;4.13;1.13;;;22.50;99.90;;;;;;4958215;29;20908;-61
2021/06/30 14:32:15;;;;;;;0.70;0.70;;;22.70;99.90;;;;;;4958141;29;20483;-63
2021/06/30 14:34:42;;;;;;;1.23;0.73;;;22.60;99.90;;;;;;4958172;28;20492;-63
2021/06/30 14:37:09;;;;;;;0.80;0.63;;;22.40;99.90;;;;;;4958044;29;20464;-63
2021/06/30 14:39:36;;;;;;;0.90;0.90;;;22.40;99.90;;;;;;4958094;29;20452;-63
2021/06/30 14:42:03;;;;;;;0.73;0.73;;;22.40;99.90;;;;;;4958113;29;20843;-63
2021/06/30 14:44:30;;;;;;;2.10;0.77;;;22.70;99.90;;;;;;4958068;29;20455;-63
2021/06/30 14:46:56;;;;;;;1.70;1.10;;;22.90;99.90;;;;;;4958446;29;20456;-63
2021/06/30 14:49:24;;;;;;;1.30;0.77;;;22.90;99.90;;;;;;4958726;28;20462;-63
2021/06/30 14:51:51;;;;;;;1.13;0.70;;;22.70;99.90;;;;;;4980428;29;20455;-63
2021/06/30 14:54:18;;;;;;;0.93;0.80;;;22.70;99.90;;;;;;4980464;28;20456;-63
2021/06/30 14:56:44;;;;;;;0.63;0.63;;;22.60;99.90;;;;;;4979452;29;20450;-62
2021/06/30 14:59:13;;;;;;;0.80;0.80;;;22.60;99.90;;;;;;4965209;29;20986;-61
2021/06/30 15:01:41;;;;;;;0.70;0.70;;;22.20;99.90;;;;;;4957616;29;20483;-63
2021/06/30 15:04:07;;;;;;;0.60;0.60;;;22.00;99.90;;;;;;4957628;29;20462;-62
2021/06/30 15:06:35;;;;;;;0.73;0.73;;;21.70;99.90;;;;;;4957489;29;20460;-63
2021/06/30 15:09:04;;;;;;;0.70;0.70;;;21.70;99.90;;;;;;4957502;29;20462;-62
2021/06/30 15:11:31;;;;;;;2.27;0.70;;;22.00;99.90;;;;;;4958142;29;20479;-63
2021/06/30 15:14:01;;;;;;;0.90;0.50;;;21.80;99.90;;;;;;4957261;29;20650;-63
2021/06/30 15:16:28;;;;;;;0.70;0.70;;;21.70;99.90;;;;;;4957802;29;20439;-63
2021/06/30 15:18:54;;;;;;;0.47;0.47;;;21.70;99.90;;;;;;4957872;29;20560;-63
2021/06/30 15:21:21;;;;;;;0.70;0.70;;;21.70;99.90;;;;;;4956977;29;20479;-63
2021/06/30 15:23:49;;;;;;;0.60;0.60;;;21.70;99.90;;;;;;4957046;29;20467;-63
2021/06/30 15:26:16;;;;;;;0.80;0.80;;;21.70;99.90;;;;;;4957371;29;20460;-63
2021/06/30 15:28:43;;;;;;;0.60;0.60;;;21.40;99.90;;;;;;4956950;29;20452;-63
2021/06/30 15:31:09;;;;;;;0.60;0.60;;;21.40;99.90;;;;;;4957263;29;20475;-63
2021/06/30 15:33:36;;;;;;;0.60;0.60;;;21.20;99.90;;;;;;4959121;29;20467;-63
2021/06/30 15:36:03;;;;;;;0.40;0.40;;;21.10;99.90;;;;;;4963484;29;20456;-63
2021/06/30 15:38:30;;;;;;;0.60;0.60;;;20.90;99.90;;;;;;4961069;28;20476;-63
2021/06/30 15:41:01;;;;;;;0.90;0.60;;;20.60;99.90;;;;;;4960317;29;20479;-63
2021/06/30 15:43:28;;;;;;;0.83;0.70;;;20.30;99.90;;;;;;4963513;29;20912;-63
2021/06/30 15:45:55;;;;;;;0.50;0.50;;;20.00;99.90;;;;;;4966709;29;20463;-63
2021/06/30 15:48:22;;;;;;;1.37;0.70;;;19.90;99.90;;;;;;4965384;29;20813;-63
2021/06/30 15:50:49;;;;;;;0.70;0.70;;;19.80;99.90;;;;;;4959440;29;20471;-63
2021/06/30 15:53:16;;;;;;;0.77;0.77;;;19.70;99.90;;;;;;4957963;29;20459;-61
2021/06/30 15:55:42;;;;;;;0.87;0.67;;;19.60;99.90;;;;;;4957496;29;20459;-62
2021/06/30 15:58:10;;;;;;;0.60;0.60;;;19.50;99.90;;;;;;4957357;29;20476;-61
2021/06/30 16:00:37;;;;;;;0.50;0.50;;;19.50;99.90;;;;;;4956329;28;20494;-62
2021/06/30 16:03:05;;;;;;;0.60;0.60;;;19.40;99.90;;;;;;4956811;29;20455;-61
2021/06/30 16:05:34;;;;;;;0.90;0.77;;;19.30;99.90;;;;;;4956979;28;20456;-62
2021/06/30 16:08:01;;;;;;;0.73;0.73;;;19.30;99.90;;;;;;4956630;29;20825;-63
2021/06/30 16:10:28;;;;;;;0.60;0.60;;;19.30;99.90;;;;;;4956457;29;20947;-63
2021/06/30 16:12:54;;;;;;;0.70;0.70;;;19.30;99.90;;;;;;4957167;29;20463;-63
2021/06/30 16:15:23;;;;;;;1.40;0.70;;;19.30;99.90;;;;;;4956575;29;20460;-61
2021/06/30 16:17:50;;;;;;;5.30;1.57;;;19.30;99.90;;;;;;4956739;29;21041;-61
2021/06/30 16:20:18;;;;;;;1.37;0.70;;;19.40;99.90;;;;;;4956775;28;20962;-62
2021/06/30 16:22:46;;;;;;;0.80;0.80;;;19.40;99.90;;;;;;4957492;29;20461;-61
2021/06/30 16:25:15;;;;;;;0.80;0.80;;;19.40;99.90;;;;;;4956643;29;20461;-62
2021/06/30 16:27:42;;;;;;;1.27;0.80;;;19.30;99.90;;;;;;4963273;29;20891;-61
2021/06/30 16:30:12;;;;;;;0.60;0.60;;;19.40;99.90;;;;;;4959833;29;20462;-61
2021/06/30 16:32:40;;;;;;;2.97;0.57;;;19.40;99.90;;;;;;4956283;29;20491;-61
2021/06/30 16:35:07;;;;;;;1.77;0.80;;;19.50;99.90;;;;;;4956237;28;20455;-62
2021/06/30 16:37:34;;;;;;;1.73;0.80;;;19.50;99.90;;;;;;4956067;29;20955;-63
2021/06/30 16:40:01;;;;;;;0.60;0.60;;;19.50;99.90;;;;;;4957174;29;20456;-62
2021/06/30 16:42:28;;;;;;;0.90;0.73;;;19.60;99.90;;;;;;4956237;29;20486;-62
2021/06/30 16:44:54;;;;;;;0.90;0.90;;;19.70;99.90;;;;;;4956660;29;20448;-62
2021/06/30 16:47:21;;;;;;;0.63;0.63;;;19.70;99.90;;;;;;4957041;29;20458;-62
2021/06/30 16:49:49;;;;;;;0.80;0.80;;;19.70;99.90;;;;;;4956239;29;20551;-63
2021/06/30 16:52:16;;;;;;;0.70;0.70;;;19.70;99.90;;;;;;4955923;29;20846;-63
2021/06/30 16:54:44;;;;;;;0.77;0.70;;;19.80;99.90;;;;;;4956025;29;20453;-63
2021/06/30 16:57:12;;;;;;;0.70;0.70;;;19.70;99.90;;;;;;4956094;29;20456;-63
2021/06/30 16:59:39;;;;;;;0.70;0.70;;;19.80;99.90;;;;;;4956123;28;20467;-63
2021/06/30 17:02:06;;;;;;;0.77;0.77;;;19.80;99.90;;;;;;4955542;29;20527;-62